Denton, Kentucky
Current Conditions -  °F | °C
As of 12:51 PM on Sunday 21 Dec 2014 (Local Time) from KHTS Reporting Station
Clear Clear  
Wind Chill: 36°   Ceiling: Unl
Heat Index: 40°   Visibility: 10mi
Dew Point: 28°   Wind: 6mph
Humidity: 63%   Direction: 70°ENE
Pressure: 30.24"   Gusts: NA
Location:  38.26°N, 82.86°W
Report Text: KHTS 211751Z 07005KT 10SM CLR 04/M02 A3024 RMK AO2 SLP246 T00441022 10044 21011 58025
Loading
Personal Weather Stations






























Interactive Weather Map New forecast layout! Learn more

10-Day Weather Forecast

Advertisements
Track Severe Weather on mobile